Stockholm, Maine
Current Conditions -  °F | °C
As of 12:54 AM on Saturday 29 Nov 2014 (Local Time) from KCAR Reporting Station
Clear Clear  
Wind Chill:   Ceiling: Unl
Heat Index: 10°   Visibility: 10mi
Dew Point:   Wind: 6mph
Humidity: 92%   Direction: 300°WNW
Pressure: 30.05"   Gusts: NA
Location:  47.04°N, 68.14°W
Report Text: KCAR 290554Z AUTO 30005KT 10SM CLR M12/M13 A3005 RMK AO2 SLP190 60000 I1000 I6000 T11221133 11094 21122 53006
Loading
Personal Weather Stations






























Interactive Weather Map New forecast layout! Learn more

10-Day Weather Forecast

Advertisements
Track Severe Weather on mobile